createdAt,value
2018-11-25T00:00:21.258Z,79.50
2018-11-25T00:02:50.329Z,81.70
2018-11-25T00:05:19.415Z,78.53
2018-11-25T00:07:48.514Z,70.57
2018-11-25T00:10:17.629Z,75.17
2018-11-25T00:12:46.701Z,67.80
2018-11-25T00:15:15.777Z,83.07
2018-11-25T00:17:44.882Z,74.77
2018-11-25T00:20:14.350Z,77.83
2018-11-25T00:22:43.833Z,77.43
2018-11-25T00:25:14.446Z,70.83
2018-11-25T00:27:43.572Z,76.53
2018-11-25T00:30:14.886Z,80.30
2018-11-25T00:32:44.358Z,79.67
2018-11-25T00:35:15.960Z,80.33
2018-11-25T00:37:48.236Z,82.57
2018-11-25T00:40:15.586Z,69.77
2018-11-25T00:42:45.422Z,80.50
2018-11-25T00:45:16.427Z,80.20
2018-11-25T00:47:45.585Z,73.50
2018-11-25T00:50:15.198Z,74.43
2018-11-25T00:52:44.286Z,77.33
2018-11-25T00:55:16.813Z,79.27
2018-11-25T00:57:45.897Z,75.00
2018-11-25T01:00:19.144Z,67.23
2018-11-25T01:02:49.826Z,77.63
2018-11-25T01:05:18.950Z,73.47
2018-11-25T01:07:48.038Z,74.20
2018-11-25T01:10:17.581Z,80.27
2018-11-25T01:12:46.861Z,71.97
2018-11-25T01:15:18.482Z,79.97
2018-11-25T01:17:47.609Z,81.23
2018-11-25T01:20:21.920Z,78.47
2018-11-25T01:22:50.990Z,81.23
2018-11-25T01:25:20.121Z,75.00
2018-11-25T01:27:49.198Z,79.03
2018-11-25T01:30:18.498Z,79.37
2018-11-25T01:32:47.610Z,86.10
2018-11-25T01:35:16.686Z,72.43
2018-11-25T01:37:45.775Z,78.70
2018-11-25T01:40:17.863Z,80.50
2018-11-25T01:42:47.068Z,73.97
2018-11-25T01:45:17.308Z,88.77
2018-11-25T01:47:46.443Z,82.40
2018-11-25T01:50:17.762Z,82.47
2018-11-25T01:52:47.514Z,78.33
2018-11-25T01:55:18.790Z,85.93
2018-11-25T01:57:47.877Z,81.40
2018-11-25T02:00:19.466Z,77.70
2018-11-25T02:02:48.689Z,78.80
2018-11-25T02:05:17.801Z,100.77
2018-11-25T02:07:46.869Z,106.97
2018-11-25T02:10:17.482Z,93.97
2018-11-25T02:12:46.560Z,91.07
2018-11-25T02:15:16.876Z,95.43
2018-11-25T02:17:45.962Z,97.17
2018-11-25T02:20:19.107Z,98.40
2018-11-25T02:22:48.210Z,103.97
2018-11-25T02:25:17.386Z,92.60
2018-11-25T02:27:46.578Z,93.13
2018-11-25T02:30:16.843Z,89.27
2018-11-25T02:32:46.421Z,93.47
2018-11-25T02:35:16.681Z,81.70
2018-11-25T02:37:45.834Z,83.60
2018-11-25T02:40:16.158Z,84.07
2018-11-25T02:42:45.303Z,81.33
2018-11-25T02:45:16.983Z,80.80
2018-11-25T02:47:46.071Z,83.30
2018-11-25T02:50:27.394Z,81.57
2018-11-25T02:53:01.701Z,77.67
2018-11-25T02:55:30.786Z,79.07
2018-11-25T02:58:00.852Z,81.40
2018-11-25T03:00:29.021Z,77.23
2018-11-25T03:02:58.096Z,74.40
2018-11-25T03:05:27.194Z,70.63
2018-11-25T03:07:56.280Z,74.43
2018-11-25T03:10:25.382Z,78.77
2018-11-25T03:12:54.482Z,77.67
2018-11-25T03:15:23.554Z,76.07
2018-11-25T03:17:52.668Z,74.00
2018-11-25T03:20:21.754Z,72.70
2018-11-25T03:22:50.818Z,69.87
2018-11-25T03:25:21.022Z,79.93
2018-11-25T03:27:50.147Z,82.00
2018-11-25T03:30:20.560Z,78.73
2018-11-25T03:32:51.091Z,80.63
2018-11-25T03:35:20.173Z,82.80
2018-11-25T03:37:49.268Z,77.80
2018-11-25T03:40:19.870Z,75.00
2018-11-25T03:42:48.925Z,80.00
2018-11-25T03:45:21.467Z,72.47
2018-11-25T03:47:50.537Z,78.23
2018-11-25T03:50:19.602Z,88.50
2018-11-25T03:52:48.672Z,79.00
2018-11-25T03:55:18.297Z,85.93
2018-11-25T03:57:47.377Z,83.97
2018-11-25T04:00:19.804Z,87.23
2018-11-25T04:02:49.944Z,78.10
2018-11-25T04:05:19.082Z,87.77
2018-11-25T04:07:48.195Z,76.73
2018-11-25T04:10:18.555Z,94.33
2018-11-25T04:12:47.695Z,98.80
2018-11-25T04:15:18.673Z,85.67
2018-11-25T04:17:48.414Z,87.33
2018-11-25T04:20:20.459Z,73.50
2018-11-25T04:22:50.201Z,89.07
2018-11-25T04:25:19.279Z,79.77
2018-11-25T04:27:48.377Z,80.83
2018-11-25T04:30:18.738Z,84.40
2018-11-25T04:32:50.275Z,91.00
2018-11-25T04:35:19.370Z,85.20
2018-11-25T04:37:48.483Z,87.97
2018-11-25T04:40:18.521Z,89.10
2018-11-25T04:42:47.595Z,84.43
2018-11-25T04:45:17.696Z,93.93
2018-11-25T04:47:47.490Z,93.93
2018-11-25T04:50:20.077Z,92.80
2018-11-25T04:52:49.251Z,82.93
2018-11-25T04:55:18.344Z,86.87
2018-11-25T04:57:52.297Z,89.73
2018-11-25T05:00:21.550Z,89.97
2018-11-25T05:02:51.694Z,84.10
2018-11-25T05:05:20.935Z,87.63
2018-11-25T05:07:49.994Z,96.23
2018-11-25T05:10:19.424Z,88.47
2018-11-25T05:12:48.537Z,90.70
2018-11-25T05:15:20.035Z,79.07
2018-11-25T05:17:49.162Z,86.27
2018-11-25T05:20:19.258Z,92.47
2018-11-25T05:22:48.371Z,96.53
2018-11-25T05:25:19.587Z,94.53
2018-11-25T05:27:48.718Z,96.50
2018-11-25T05:30:19.224Z,95.27
2018-11-25T05:32:48.358Z,83.70
2018-11-25T05:35:19.054Z,99.27
2018-11-25T05:37:48.165Z,91.80
2018-11-25T05:40:17.797Z,89.83
2018-11-25T05:42:46.904Z,87.73
2018-11-25T05:45:18.225Z,83.10
2018-11-25T05:47:47.307Z,82.00
2018-11-25T05:50:17.856Z,82.57
2018-11-25T05:52:46.928Z,84.43
2018-11-25T05:55:16.034Z,81.03
2018-11-25T05:57:45.154Z,88.93
2018-11-25T06:00:21.714Z,87.90
2018-11-25T06:02:50.786Z,98.33
2018-11-25T06:05:19.854Z,100.13
2018-11-25T06:07:48.937Z,82.17
2018-11-25T06:10:18.011Z,79.20
2018-11-25T06:12:47.063Z,87.60
2018-11-25T06:15:16.158Z,89.27
2018-11-25T06:17:45.235Z,85.27
2018-11-25T06:20:15.699Z,79.57
2018-11-25T06:22:45.105Z,90.83
2018-11-25T06:25:16.900Z,87.60
2018-11-25T06:27:45.969Z,100.73
2018-11-25T06:30:19.433Z,81.63
2018-11-25T06:32:48.604Z,84.10
2018-11-25T06:35:19.194Z,92.47
2018-11-25T06:37:48.294Z,79.53
2018-11-25T06:40:18.820Z,81.70
2018-11-25T06:42:47.906Z,82.13
2018-11-25T06:45:22.922Z,87.37
2018-11-25T06:47:52.222Z,83.73
2018-11-25T06:50:21.397Z,93.80
2018-11-25T06:52:50.458Z,101.10
2018-11-25T06:55:19.553Z,91.47
2018-11-25T06:57:48.636Z,104.30
2018-11-25T07:00:20.163Z,102.30
2018-11-25T07:02:49.245Z,101.00
2018-11-25T07:05:18.358Z,102.87
2018-11-25T07:07:47.427Z,96.77
2018-11-25T07:10:18.812Z,99.60
2018-11-25T07:12:49.337Z,87.13
2018-11-25T07:15:18.982Z,91.73
2018-11-25T07:17:48.152Z,84.50
2018-11-25T07:20:18.355Z,93.07
2018-11-25T07:22:47.526Z,100.13
2018-11-25T07:25:21.961Z,104.87
2018-11-25T07:27:51.101Z,85.30
2018-11-25T07:30:25.478Z,98.17
2018-11-25T07:32:54.640Z,83.30
2018-11-25T07:35:25.410Z,86.47
2018-11-25T07:37:54.519Z,91.20
2018-11-25T07:40:24.543Z,86.80
2018-11-25T07:42:53.634Z,83.77
2018-11-25T07:45:30.261Z,79.13
2018-11-25T07:47:53.589Z,94.43
2018-11-25T07:50:22.614Z,90.77
2018-11-25T07:52:52.251Z,92.30
2018-11-25T07:55:25.594Z,91.87
2018-11-25T07:57:55.973Z,88.70
2018-11-25T08:00:26.190Z,79.40
2018-11-25T08:02:55.295Z,84.23
2018-11-25T08:05:26.126Z,84.87
2018-11-25T08:07:55.213Z,78.03
2018-11-25T08:10:24.289Z,79.33
2018-11-25T08:12:53.393Z,74.73
2018-11-25T08:15:22.496Z,66.23
2018-11-25T08:17:51.593Z,65.97
2018-11-25T08:20:22.028Z,75.00
2018-11-25T08:22:51.411Z,65.67
2018-11-25T08:25:21.699Z,68.57
2018-11-25T08:27:50.797Z,66.40
2018-11-25T08:30:24.158Z,69.47
2018-11-25T08:32:53.530Z,69.23
2018-11-25T08:35:22.682Z,58.10
2018-11-25T08:37:51.757Z,89.87
2018-11-25T08:40:24.390Z,63.70
2018-11-25T08:42:53.831Z,62.17
2018-11-25T08:45:22.986Z,67.40
2018-11-25T08:47:52.039Z,64.67
2018-11-25T08:50:21.147Z,63.30
2018-11-25T08:52:52.662Z,62.83
2018-11-25T08:55:24.117Z,62.80
2018-11-25T08:57:53.658Z,62.97
2018-11-25T09:00:24.174Z,64.30
2018-11-25T09:02:55.746Z,64.17
2018-11-25T09:05:24.805Z,70.03
2018-11-25T09:07:53.851Z,62.40
2018-11-25T09:10:23.342Z,61.97
2018-11-25T09:12:56.061Z,67.30
2018-11-25T09:15:29.077Z,70.43
2018-11-25T09:17:58.246Z,68.33
2018-11-25T09:20:27.393Z,64.77
2018-11-25T09:22:56.809Z,63.10
2018-11-25T09:25:32.516Z,71.10
2018-11-25T09:28:03.455Z,59.43
2018-11-25T09:30:33.671Z,58.50
2018-11-25T09:33:02.774Z,60.23
2018-11-25T09:35:31.826Z,82.00
2018-11-25T09:38:00.885Z,59.10
2018-11-25T09:40:30.002Z,57.87
2018-11-25T09:42:59.061Z,60.43
2018-11-25T09:45:28.148Z,62.80
2018-11-25T09:47:57.204Z,62.00
2018-11-25T09:50:26.263Z,65.57
2018-11-25T09:52:55.366Z,61.43
2018-11-25T09:55:25.344Z,61.57
2018-11-25T09:57:59.270Z,61.47
2018-11-25T10:00:34.930Z,60.07
2018-11-25T10:03:05.753Z,61.43
2018-11-25T10:05:34.846Z,56.13
2018-11-25T10:08:03.924Z,62.60
2018-11-25T10:10:33.018Z,55.97
2018-11-25T10:13:02.154Z,58.63
2018-11-25T10:15:31.551Z,62.50
2018-11-25T10:18:00.615Z,58.77
2018-11-25T10:20:31.612Z,61.93
2018-11-25T10:23:00.684Z,62.57
2018-11-25T10:25:29.741Z,63.27
2018-11-25T10:27:58.823Z,58.93
2018-11-25T10:30:29.590Z,60.20
2018-11-25T10:33:01.562Z,58.83
2018-11-25T10:35:30.699Z,61.73
2018-11-25T10:37:59.769Z,65.27
2018-11-25T10:40:28.885Z,64.03
2018-11-25T10:42:58.014Z,67.10
2018-11-25T10:45:28.407Z,67.07
2018-11-25T10:47:58.485Z,69.63
2018-11-25T10:50:27.585Z,66.07
2018-11-25T10:52:56.742Z,72.83
2018-11-25T10:55:25.823Z,62.17
2018-11-25T10:57:55.236Z,65.73
2018-11-25T11:00:31.297Z,72.57
2018-11-25T11:04:03.195Z,55.73
2018-11-25T11:06:37.563Z,66.57
2018-11-25T11:09:07.882Z,70.70
2018-11-25T11:11:36.949Z,71.27
2018-11-25T11:14:06.374Z,75.17
2018-11-25T11:16:35.473Z,72.47
2018-11-25T11:19:04.627Z,78.53
2018-11-25T11:21:33.723Z,78.77
2018-11-25T11:24:02.814Z,72.03
2018-11-25T11:26:31.879Z,67.23
2018-11-25T11:29:00.951Z,72.87
2018-11-25T11:31:30.027Z,72.80
2018-11-25T11:33:59.090Z,67.90
2018-11-25T11:36:28.166Z,79.90
2018-11-25T11:38:57.263Z,73.00
2018-11-25T11:41:26.334Z,73.10
2018-11-25T11:43:55.383Z,66.33
2018-11-25T11:46:24.527Z,67.43
2018-11-25T11:48:53.787Z,70.63
2018-11-25T11:51:26.051Z,70.63
2018-11-25T11:53:52.778Z,79.00
2018-11-25T11:56:21.841Z,78.23
2018-11-25T11:58:51.014Z,67.80
2018-11-25T12:01:20.076Z,72.03
2018-11-25T12:03:49.116Z,71.00
2018-11-25T12:06:18.190Z,68.57
2018-11-25T12:08:47.270Z,73.37
2018-11-25T12:11:16.318Z,77.33
2018-11-25T12:13:45.381Z,78.63
2018-11-25T12:16:14.449Z,70.73
2018-11-25T12:18:43.502Z,71.00
2018-11-25T12:21:12.625Z,72.70
2018-11-25T12:23:41.686Z,75.87
2018-11-25T12:26:10.767Z,68.83
2018-11-25T12:28:39.837Z,76.93
2018-11-25T12:31:08.918Z,74.90
2018-11-25T12:33:38.009Z,74.80
2018-11-25T12:36:07.066Z,77.17
2018-11-25T12:38:36.128Z,78.70
2018-11-25T12:41:05.202Z,76.80
2018-11-25T12:43:34.235Z,80.07
2018-11-25T12:46:03.324Z,84.63
2018-11-25T12:48:32.386Z,74.63
2018-11-25T12:51:01.471Z,80.93
2018-11-25T12:53:30.530Z,82.87
2018-11-25T12:55:59.645Z,84.43
2018-11-25T12:58:28.711Z,84.57
2018-11-25T13:00:57.757Z,77.17
2018-11-25T13:03:26.798Z,79.97
2018-11-25T13:05:55.882Z,79.00
2018-11-25T13:08:24.944Z,82.87
2018-11-25T13:10:54.031Z,78.50
2018-11-25T13:13:23.108Z,80.63
2018-11-25T13:15:52.174Z,85.27
2018-11-25T13:18:21.226Z,76.43
2018-11-25T13:20:50.318Z,83.50
2018-11-25T13:23:19.403Z,89.20
2018-11-25T13:25:48.474Z,84.13
2018-11-25T13:28:17.647Z,80.27
2018-11-25T13:30:46.734Z,88.13
2018-11-25T13:33:15.791Z,89.03
2018-11-25T13:35:44.843Z,91.03
2018-11-25T13:38:13.903Z,100.87
2018-11-25T13:40:43.012Z,86.30
2018-11-25T13:43:12.070Z,95.57
2018-11-25T13:45:41.229Z,82.40
2018-11-25T13:48:10.262Z,101.83
2018-11-25T13:50:39.406Z,94.33
2018-11-25T13:53:08.473Z,112.47
2018-11-25T13:55:37.530Z,106.67
2018-11-25T13:58:06.864Z,95.53
2018-11-25T14:00:45.878Z,97.50
2018-11-25T14:03:22.997Z,96.80
2018-11-25T14:05:53.016Z,95.87
2018-11-25T14:08:21.214Z,91.47
2018-11-25T14:10:59.547Z,85.63
2018-11-25T14:13:28.602Z,89.60
2018-11-25T14:15:57.654Z,90.60
2018-11-25T14:18:26.811Z,90.30
2018-11-25T14:20:55.859Z,97.83
2018-11-25T14:23:24.918Z,98.67
2018-11-25T14:25:55.312Z,84.73
2018-11-25T14:28:24.410Z,89.00
2018-11-25T14:30:53.615Z,94.93
2018-11-25T14:33:22.666Z,114.03
2018-11-25T14:35:51.771Z,118.60
2018-11-25T14:38:20.866Z,92.47
2018-11-25T14:40:49.959Z,101.13
2018-11-25T14:43:19.023Z,106.20
2018-11-25T14:45:48.094Z,111.80
2018-11-25T14:48:17.157Z,121.80
2018-11-25T14:50:46.235Z,127.70
2018-11-25T14:53:15.372Z,133.93
2018-11-25T14:55:44.466Z,132.17
2018-11-25T14:58:13.531Z,159.97
2018-11-25T15:00:42.634Z,149.10
2018-11-25T15:03:11.690Z,172.20
2018-11-25T15:05:44.739Z,162.87
2018-11-25T15:08:19.024Z,138.97
2018-11-25T15:10:48.086Z,136.00
2018-11-25T15:13:17.158Z,151.23
2018-11-25T15:15:46.228Z,138.00
2018-11-25T15:18:15.326Z,129.40
2018-11-25T15:20:44.396Z,125.30
2018-11-25T15:23:20.673Z,140.80
2018-11-25T15:25:54.276Z,147.87
2018-11-25T15:28:23.351Z,146.23
2018-11-25T15:30:52.419Z,139.50
2018-11-25T15:33:21.486Z,158.87
2018-11-25T15:35:50.582Z,155.83
2018-11-25T15:38:19.678Z,171.57
2018-11-25T15:40:48.717Z,160.27
2018-11-25T15:43:17.808Z,152.63
2018-11-25T15:45:46.871Z,158.30
2018-11-25T15:48:20.519Z,163.93
2018-11-25T15:50:49.707Z,157.97
2018-11-25T15:53:18.813Z,175.33
2018-11-25T15:55:50.270Z,166.63
2018-11-25T15:58:19.379Z,160.70
2018-11-25T16:00:48.457Z,170.47
2018-11-25T16:03:17.550Z,173.93
2018-11-25T16:05:52.835Z,168.67
2018-11-25T16:08:21.890Z,175.40
2018-11-25T16:10:51.042Z,176.93
2018-11-25T16:13:20.104Z,179.50
2018-11-25T16:15:49.160Z,169.00
2018-11-25T16:18:18.287Z,189.80
2018-11-25T16:20:47.371Z,170.97
2018-11-25T16:23:16.426Z,175.07
2018-11-25T16:25:51.132Z,193.97
2018-11-25T16:28:28.889Z,201.03
2018-11-25T16:30:57.938Z,194.83
2018-11-25T16:33:27.020Z,187.27
2018-11-25T16:35:56.145Z,177.93
2018-11-25T16:38:25.214Z,162.83
2018-11-25T16:40:54.274Z,195.17
2018-11-25T16:43:23.406Z,200.90
2018-11-25T16:45:52.496Z,171.47
2018-11-25T16:48:21.580Z,196.80
2018-11-25T16:50:50.649Z,203.67
2018-11-25T16:53:19.716Z,179.47
2018-11-25T16:55:48.786Z,179.63
2018-11-25T16:58:17.867Z,183.17
2018-11-25T17:00:46.966Z,178.47
2018-11-25T17:03:16.087Z,177.60
2018-11-25T17:05:49.167Z,171.33
2018-11-25T17:08:23.193Z,144.40
2018-11-25T17:10:52.267Z,160.90
2018-11-25T17:13:21.343Z,149.03
2018-11-25T17:15:50.414Z,152.57
2018-11-25T17:18:19.481Z,140.57
2018-11-25T17:20:48.573Z,142.13
2018-11-25T17:23:17.668Z,161.13
2018-11-25T17:25:46.725Z,148.07
2018-11-25T17:28:15.878Z,156.87
2018-11-25T17:30:44.946Z,145.67
2018-11-25T17:33:14.022Z,158.10
2018-11-25T17:35:43.098Z,157.70
2018-11-25T17:38:12.182Z,168.07
2018-11-25T17:40:41.262Z,165.53
2018-11-25T17:43:13.101Z,155.60
2018-11-25T17:45:42.171Z,168.23
2018-11-25T17:48:11.249Z,175.77
2018-11-25T17:50:40.326Z,169.23
2018-11-25T17:53:09.994Z,167.77
2018-11-25T17:55:39.094Z,159.37
2018-11-25T17:58:08.166Z,166.20
2018-11-25T18:00:45.843Z,162.40
2018-11-25T18:03:32.354Z,177.50
2018-11-25T18:06:01.445Z,161.53
2018-11-25T18:08:30.502Z,160.90
2018-11-25T18:10:59.582Z,183.93
2018-11-25T18:13:31.559Z,165.17
2018-11-25T18:16:03.031Z,153.50
2018-11-25T18:18:43.011Z,163.40
2018-11-25T18:21:15.241Z,169.77
2018-11-25T18:23:44.326Z,160.77
2018-11-25T18:26:13.394Z,158.37
2018-11-25T18:28:42.571Z,174.20
2018-11-25T18:31:12.650Z,163.30
2018-11-25T18:33:41.746Z,153.37
2018-11-25T18:36:13.431Z,152.70
2018-11-25T18:38:42.514Z,155.17
2018-11-25T18:41:11.566Z,162.60
2018-11-25T18:43:40.631Z,152.40
2018-11-25T18:46:09.726Z,151.10
2018-11-25T18:48:42.946Z,141.13
2018-11-25T18:51:12.053Z,141.40
2018-11-25T18:53:41.097Z,150.93
2018-11-25T18:56:10.170Z,137.73
2018-11-25T18:58:39.290Z,143.07
2018-11-25T19:01:39.294Z,134.70
2018-11-25T19:04:08.350Z,126.30
2018-11-25T19:06:37.419Z,131.43
2018-11-25T19:09:09.683Z,137.77
2018-11-25T19:11:39.010Z,144.67
2018-11-25T19:14:08.084Z,145.17
2018-11-25T19:16:37.714Z,143.70
2018-11-25T19:19:06.822Z,126.90
2018-11-25T19:21:36.194Z,134.73
2018-11-25T19:24:05.545Z,136.57
2018-11-25T19:26:34.911Z,137.07
2018-11-25T19:29:04.641Z,138.00
2018-11-25T19:31:34.001Z,129.77
2018-11-25T19:34:03.420Z,130.70
2018-11-25T19:36:32.898Z,153.47
2018-11-25T19:39:02.283Z,148.33
2018-11-25T19:41:31.671Z,146.20
2018-11-25T19:44:01.709Z,146.53
2018-11-25T19:46:31.125Z,148.10
2018-11-25T19:49:00.497Z,143.90
2018-11-25T19:51:30.147Z,134.80
2018-11-25T19:53:59.519Z,148.50
2018-11-25T19:56:28.857Z,149.60
2018-11-25T19:58:59.320Z,150.67
2018-11-25T20:01:29.823Z,138.93
2018-11-25T20:03:59.282Z,132.53
2018-11-25T20:06:28.663Z,127.77
2018-11-25T20:08:58.054Z,141.63
2018-11-25T20:11:27.609Z,131.60
2018-11-25T20:13:57.038Z,126.70
2018-11-25T20:16:31.743Z,134.57
2018-11-25T20:19:01.275Z,129.83
2018-11-25T20:21:35.840Z,129.03
2018-11-25T20:24:05.081Z,130.83
2018-11-25T20:26:34.142Z,129.30
2018-11-25T20:29:03.323Z,121.37
2018-11-25T20:31:32.418Z,133.30
2018-11-25T20:34:01.515Z,132.60
2018-11-25T20:36:30.762Z,123.73
2018-11-25T20:39:05.114Z,133.27
2018-11-25T20:41:34.189Z,137.73
2018-11-25T20:44:03.302Z,141.80
2018-11-25T20:46:37.699Z,143.20
2018-11-25T20:49:06.919Z,145.10
2018-11-25T20:51:41.310Z,170.10
2018-11-25T20:54:10.414Z,155.07
2018-11-25T20:56:39.496Z,183.83
2018-11-25T20:59:08.607Z,185.80
2018-11-25T21:01:37.710Z,177.20
2018-11-25T21:04:06.794Z,182.60
2018-11-25T21:06:35.894Z,193.03
2018-11-25T21:09:08.123Z,214.33
2018-11-25T21:11:37.246Z,197.50
2018-11-25T21:14:06.346Z,197.53
2018-11-25T21:16:35.454Z,231.67
2018-11-25T21:19:04.570Z,220.40
2018-11-25T21:21:33.637Z,212.37
2018-11-25T21:24:02.706Z,222.57
2018-11-25T21:26:31.798Z,214.57
2018-11-25T21:29:00.906Z,227.43
2018-11-25T21:31:30.012Z,231.80
2018-11-25T21:33:59.080Z,220.57
2018-11-25T21:36:28.149Z,207.17
2018-11-25T21:38:57.209Z,208.60
2018-11-25T21:41:26.315Z,227.53
2018-11-25T21:43:55.377Z,224.47
2018-11-25T21:46:24.451Z,231.20
2018-11-25T21:48:53.577Z,241.57
2018-11-25T21:51:22.663Z,237.17
2018-11-25T21:53:51.750Z,223.73
2018-11-25T21:56:20.822Z,218.90
2018-11-25T21:58:49.914Z,231.33
2018-11-25T22:01:19.001Z,239.83
2018-11-25T22:03:48.087Z,228.07
2018-11-25T22:06:17.174Z,205.83
2018-11-25T22:08:46.320Z,220.30
2018-11-25T22:11:15.391Z,247.30
2018-11-25T22:13:44.492Z,258.80
2018-11-25T22:16:13.574Z,234.40
2018-11-25T22:18:42.647Z,237.30
2018-11-25T22:21:11.777Z,224.03
2018-11-25T22:23:40.842Z,217.67
2018-11-25T22:26:09.917Z,234.97
2018-11-25T22:28:39.087Z,271.17
2018-11-25T22:31:08.218Z,257.87
2018-11-25T22:33:37.282Z,216.67
2018-11-25T22:36:06.566Z,254.37
2018-11-25T22:38:35.702Z,223.40
2018-11-25T22:41:05.170Z,248.57
2018-11-25T22:43:34.254Z,239.47
2018-11-25T22:46:03.366Z,231.17
2018-11-25T22:48:32.506Z,220.43
2018-11-25T22:51:01.624Z,235.80
2018-11-25T22:53:30.869Z,238.00
2018-11-25T22:55:59.947Z,208.87
2018-11-25T22:58:29.095Z,216.63
2018-11-25T23:00:58.157Z,215.47
2018-11-25T23:03:27.233Z,218.53
2018-11-25T23:06:13.407Z,212.87
2018-11-25T23:08:42.514Z,186.00
2018-11-25T23:11:11.620Z,188.43
2018-11-25T23:13:40.682Z,181.93
2018-11-25T23:16:09.778Z,178.43
2018-11-25T23:18:38.841Z,181.27
2018-11-25T23:21:07.989Z,176.23
2018-11-25T23:23:37.051Z,177.43
2018-11-25T23:26:06.222Z,166.53
2018-11-25T23:28:35.355Z,174.60
2018-11-25T23:31:04.456Z,159.23
2018-11-25T23:33:33.566Z,169.57
2018-11-25T23:36:02.650Z,155.17
2018-11-25T23:38:31.955Z,151.50
2018-11-25T23:41:01.023Z,133.60
2018-11-25T23:43:30.130Z,151.03
2018-11-25T23:45:59.233Z,152.17
2018-11-25T23:48:28.302Z,147.67
2018-11-25T23:50:57.421Z,167.80
2018-11-25T23:53:26.535Z,167.27
2018-11-25T23:55:55.698Z,155.30
2018-11-25T23:58:24.783Z,160.83
